Aeroporto :
LOGIN :

Iscrizione | Disclaimer

   EN    FR    IT 

 










Sommario :    VFR   VFR Marginale   IFR   IFR Intensivo   IFR Molto Intensivo
Visibilità : 
Base nubi : 
>= 8 km
>= 3000ft
5 / 8 km
1000 / 3000 ft
1500m / 5 km
500 / 1000 ft
800 / 1500m
200 / 500 ft
< 800m
< 200 ft
Simboli :   Temporali  Nebbia  Neve Forte  Precipitazioni Forti  Vento > 20 kt
SIGMETs :   Varie  Temporali  Ghiacco  Turbolenza  Onda orograficha  Ceneri Vulcaniche






- Altitudine del aeroporto : 913 ft


LFSX - Luxeuil

ULTIMO METAR :
  • 180030Z AUTO 26005KT 9999 BKN025 BKN034 BKN040 03/03 Q1026

METARs OBSOLETI :
  • 180000Z AUTO VRB02KT 2400 R11/1200D BR SCT034 SCT040 OVC180 03/02 Q1026
  • 172330Z AUTO 04002KT 6000 1200 R11/1300D FEW041 BKN180 OVC200 04/04 Q1026
  • 172300Z AUTO 10001KT 7000 NSC 03/03 Q1025
  • 172230Z AUTO 31003KT 9000 FEW040 SCT120 OVC180 04/03 Q1025
  • 172200Z AUTO 26002KT 9999 FEW032 OVC170 04/04 Q1025

TAF TAF LFSX
Valido dal 17 a 09 ore il 18 a 09 ore UTC


170800Z 1709/1809 10005KT CAVOK
BECMG 1711/1713 22010KT 4900 -RA SCT014 BKN030
TEMPO 1712/1718 22010G20KT 2000 SHRA SCT007 BKN015TCU



MetMap, La meteo Aeronautica in un colpo d'occhio ! - Copyright ORBIFLY Dicembre 2007 - Disclaimer

ORBIFLY MET'MAP TEAM :

Programmazione e sviluppo : Alexandra Zaïnal
Concezione : Baudouin d'Aumeries
Aiuto per la programmazione : Marc-Olivier Méhu
Supporto tecnico e logistico : Manuel Goepfert
Aiuto per la traduzione : Arnaldo La Scala

Contatto : metmap@orbifly.com




FONTI E CREDITI :

   NOAA